Wauwatosa, Wisconsin
Current Conditions -  °F | °C
As of 10:45 AM on Thursday 27 Nov 2014 (Local Time) from KMWC Reporting Station
Overcast Overcast  
Wind Chill:   Ceiling: 1500
Heat Index: 21°   Visibility: 10mi
Dew Point: 14°   Wind: 16mph
Humidity: 74%   Direction: 310°NW
Pressure: 30.34"   Gusts: NA
Location:  43.06°N, 88.01°W
Report Text: KMWC 271645Z AUTO 31014KT 10SM OVC015 M06/M10 A3034
Loading
Personal Weather Stations






























Interactive Weather Map New forecast layout! Learn more

10-Day Weather Forecast

Advertisements
Track Severe Weather on mobile